sensor_id;sensor_type;location;lat;lon;timestamp;pressure;altitude;pressure_sealevel;temperature;humidity
22830;BME280;11581;51.250;6.778;2022-11-15T00:02:10;100501.22;;;13.57;60.27
22830;BME280;11581;51.250;6.778;2022-11-15T00:04:59;100509.72;;;13.69;60.62
22830;BME280;11581;51.250;6.778;2022-11-15T00:07:48;100489.31;;;13.60;61.16
22830;BME280;11581;51.250;6.778;2022-11-15T00:10:36;100510.88;;;13.74;60.74
22830;BME280;11581;51.250;6.778;2022-11-15T00:13:24;100483.44;;;13.64;60.83
22830;BME280;11581;51.250;6.778;2022-11-15T00:16:10;100502.13;;;13.80;60.95
22830;BME280;11581;51.250;6.778;2022-11-15T00:18:55;100484.41;;;13.71;60.91
22830;BME280;11581;51.250;6.778;2022-11-15T00:21:41;100416.41;;;13.33;61.05
22830;BME280;11581;51.250;6.778;2022-11-15T00:24:28;100456.03;;;13.54;61.25
22830;BME280;11581;51.250;6.778;2022-11-15T00:27:14;100483.38;;;13.80;60.80
22830;BME280;11581;51.250;6.778;2022-11-15T00:29:59;100372.66;;;13.10;60.82
22830;BME280;11581;51.250;6.778;2022-11-15T00:32:44;100490.66;;;13.94;61.12
22830;BME280;11581;51.250;6.778;2022-11-15T00:35:31;100501.41;;;13.94;61.19
22830;BME280;11581;51.250;6.778;2022-11-15T00:38:17;100503.00;;;14.11;61.04
22830;BME280;11581;51.250;6.778;2022-11-15T00:41:06;100503.47;;;14.15;61.60
22830;BME280;11581;51.250;6.778;2022-11-15T00:43:52;100459.06;;;13.90;61.32
22830;BME280;11581;51.250;6.778;2022-11-15T00:46:39;100440.16;;;13.83;61.11
22830;BME280;11581;51.250;6.778;2022-11-15T00:49:25;100508.66;;;14.24;61.19
22830;BME280;11581;51.250;6.778;2022-11-15T00:52:12;100428.47;;;13.76;61.31
22830;BME280;11581;51.250;6.778;2022-11-15T00:54:58;100508.94;;;14.29;61.09
22830;BME280;11581;51.250;6.778;2022-11-15T00:57:45;100369.94;;;13.57;61.55
22830;BME280;11581;51.250;6.778;2022-11-15T01:00:32;100494.03;;;14.35;61.19
22830;BME280;11581;51.250;6.778;2022-11-15T01:03:17;100502.72;;;14.37;61.16
22830;BME280;11581;51.250;6.778;2022-11-15T01:06:03;100506.88;;;14.39;61.21
22830;BME280;11581;51.250;6.778;2022-11-15T01:08:49;100460.56;;;14.15;61.19
22830;BME280;11581;51.250;6.778;2022-11-15T01:11:34;100483.13;;;14.36;61.25
22830;BME280;11581;51.250;6.778;2022-11-15T01:14:21;100515.06;;;14.46;61.14
22830;BME280;11581;51.250;6.778;2022-11-15T01:17:07;100429.59;;;14.12;61.15
22830;BME280;11581;51.250;6.778;2022-11-15T01:19:52;100463.00;;;14.32;61.26
22830;BME280;11581;51.250;6.778;2022-11-15T01:22:38;100482.38;;;14.42;61.28
22830;BME280;11581;51.250;6.778;2022-11-15T01:25:24;100468.50;;;14.39;61.34
22830;BME280;11581;51.250;6.778;2022-11-15T01:28:11;100478.97;;;14.48;61.69
22830;BME280;11581;51.250;6.778;2022-11-15T01:30:59;100490.66;;;14.55;62.01
22830;BME280;11581;51.250;6.778;2022-11-15T01:33:45;100483.28;;;14.57;61.54
22830;BME280;11581;51.250;6.778;2022-11-15T01:36:31;100484.59;;;14.61;61.58
22830;BME280;11581;51.250;6.778;2022-11-15T01:39:16;100480.91;;;14.62;61.60
22830;BME280;11581;51.250;6.778;2022-11-15T01:42:02;100467.34;;;14.56;61.57
22830;BME280;11581;51.250;6.778;2022-11-15T01:44:49;100465.44;;;14.64;61.68
22830;BME280;11581;51.250;6.778;2022-11-15T01:47:39;100433.44;;;14.40;61.91
22830;BME280;11581;51.250;6.778;2022-11-15T01:50:29;100473.63;;;14.71;61.87
22830;BME280;11581;51.250;6.778;2022-11-15T01:53:17;100470.09;;;14.70;61.74
22830;BME280;11581;51.250;6.778;2022-11-15T01:56:08;100437.66;;;14.57;61.91
22830;BME280;11581;51.250;6.778;2022-11-15T01:58:56;100463.34;;;14.74;62.10
22830;BME280;11581;51.250;6.778;2022-11-15T02:01:44;100440.94;;;14.67;61.64
22830;BME280;11581;51.250;6.778;2022-11-15T02:04:32;100464.66;;;14.78;62.13
22830;BME280;11581;51.250;6.778;2022-11-15T02:07:19;100415.53;;;14.55;61.94
22830;BME280;11581;51.250;6.778;2022-11-15T02:10:09;100452.25;;;14.77;62.00
22830;BME280;11581;51.250;6.778;2022-11-15T02:12:56;100419.34;;;14.61;61.46
22830;BME280;11581;51.250;6.778;2022-11-15T02:15:51;100444.94;;;14.86;62.38
22830;BME280;11581;51.250;6.778;2022-11-15T02:18:47;100402.72;;;14.65;62.00
22830;BME280;11581;51.250;6.778;2022-11-15T02:21:39;100434.50;;;14.91;62.26
22830;BME280;11581;51.250;6.778;2022-11-15T02:25:01;100419.31;;;14.83;62.57
22830;BME280;11581;51.250;6.778;2022-11-15T02:31:17;100435.44;;;14.98;62.20
22830;BME280;11581;51.250;6.778;2022-11-15T02:34:16;100387.38;;;14.74;62.49
22830;BME280;11581;51.250;6.778;2022-11-15T02:37:11;100427.38;;;14.98;62.30
22830;BME280;11581;51.250;6.778;2022-11-15T02:40:07;100299.78;;;14.21;62.29
22830;BME280;11581;51.250;6.778;2022-11-15T02:43:01;100425.63;;;15.05;62.19
22830;BME280;11581;51.250;6.778;2022-11-15T02:46:13;100414.50;;;14.93;62.16
22830;BME280;11581;51.250;6.778;2022-11-15T02:49:01;100422.75;;;15.06;61.92
22830;BME280;11581;51.250;6.778;2022-11-15T02:51:47;100379.00;;;14.69;61.91
22830;BME280;11581;51.250;6.778;2022-11-15T02:54:35;100418.66;;;15.10;61.77
22830;BME280;11581;51.250;6.778;2022-11-15T02:57:28;100421.75;;;15.07;62.49
22830;BME280;11581;51.250;6.778;2022-11-15T03:00:18;100403.22;;;14.98;62.16
22830;BME280;11581;51.250;6.778;2022-11-15T03:03:20;100373.09;;;14.73;62.75
22830;BME280;11581;51.250;6.778;2022-11-15T03:06:18;100352.34;;;14.67;62.42
22830;BME280;11581;51.250;6.778;2022-11-15T03:09:09;100441.38;;;15.22;62.14
22830;BME280;11581;51.250;6.778;2022-11-15T03:12:01;100425.00;;;15.17;62.10
22830;BME280;11581;51.250;6.778;2022-11-15T03:14:53;100430.28;;;15.25;62.44
22830;BME280;11581;51.250;6.778;2022-11-15T03:17:46;100399.69;;;15.12;62.61
22830;BME280;11581;51.250;6.778;2022-11-15T03:20:36;100377.84;;;15.00;61.89
22830;BME280;11581;51.250;6.778;2022-11-15T03:23:24;100421.47;;;15.31;62.29
22830;BME280;11581;51.250;6.778;2022-11-15T03:26:12;100353.03;;;14.98;62.34
22830;BME280;11581;51.250;6.778;2022-11-15T03:29:02;100418.41;;;15.34;62.08
22830;BME280;11581;51.250;6.778;2022-11-15T03:31:55;100391.19;;;15.23;62.57
22830;BME280;11581;51.250;6.778;2022-11-15T03:34:44;100368.66;;;15.09;62.46
22830;BME280;11581;51.250;6.778;2022-11-15T03:37:36;100416.25;;;15.38;62.37
22830;BME280;11581;51.250;6.778;2022-11-15T03:40:29;100409.00;;;15.38;62.67
22830;BME280;11581;51.250;6.778;2022-11-15T03:43:24;100374.88;;;15.24;62.89
22830;BME280;11581;51.250;6.778;2022-11-15T03:46:19;100397.88;;;15.41;62.37
22830;BME280;11581;51.250;6.778;2022-11-15T03:49:09;100386.09;;;15.42;62.31
22830;BME280;11581;51.250;6.778;2022-11-15T03:51:57;100399.34;;;15.44;62.11
22830;BME280;11581;51.250;6.778;2022-11-15T03:54:48;100376.81;;;15.30;62.65
22830;BME280;11581;51.250;6.778;2022-11-15T03:57:36;100400.00;;;15.46;62.32
22830;BME280;11581;51.250;6.778;2022-11-15T04:00:24;100397.13;;;15.47;62.18
22830;BME280;11581;51.250;6.778;2022-11-15T04:03:10;100385.09;;;15.43;62.07
22830;BME280;11581;51.250;6.778;2022-11-15T04:05:58;100376.38;;;15.41;61.93
22830;BME280;11581;51.250;6.778;2022-11-15T04:08:44;100387.66;;;15.51;61.97
22830;BME280;11581;51.250;6.778;2022-11-15T04:11:30;100393.03;;;15.51;62.02
22830;BME280;11581;51.250;6.778;2022-11-15T04:14:17;100394.72;;;15.52;62.19
22830;BME280;11581;51.250;6.778;2022-11-15T04:17:05;100397.22;;;15.54;62.01
22830;BME280;11581;51.250;6.778;2022-11-15T04:19:51;100381.91;;;15.54;62.07
22830;BME280;11581;51.250;6.778;2022-11-15T04:22:56;100387.28;;;15.54;62.15
22830;BME280;11581;51.250;6.778;2022-11-15T04:26:01;100388.94;;;15.55;62.16
22830;BME280;11581;51.250;6.778;2022-11-15T04:28:47;100388.94;;;15.55;62.06
22830;BME280;11581;51.250;6.778;2022-11-15T04:31:53;100383.56;;;15.55;62.34
22830;BME280;11581;51.250;6.778;2022-11-15T04:34:38;100379.88;;;15.56;61.98
22830;BME280;11581;51.250;6.778;2022-11-15T04:37:24;100336.53;;;15.30;61.99
22830;BME280;11581;51.250;6.778;2022-11-15T04:40:10;100384.41;;;15.56;62.09
22830;BME280;11581;51.250;6.778;2022-11-15T04:42:56;100386.75;;;15.44;62.31
22830;BME280;11581;51.250;6.778;2022-11-15T04:45:41;100315.25;;;15.14;62.33
22830;BME280;11581;51.250;6.778;2022-11-15T04:48:28;100389.97;;;15.54;62.78
22830;BME280;11581;51.250;6.778;2022-11-15T04:51:13;100390.34;;;15.51;62.60
22830;BME280;11581;51.250;6.778;2022-11-15T04:53:59;100372.75;;;15.34;62.76
22830;BME280;11581;51.250;6.778;2022-11-15T04:56:45;100353.75;;;15.21;62.95
22830;BME280;11581;51.250;6.778;2022-11-15T04:59:30;100394.75;;;15.38;63.09
22830;BME280;11581;51.250;6.778;2022-11-15T05:02:16;100323.69;;;14.82;63.19
22830;BME280;11581;51.250;6.778;2022-11-15T05:05:03;100381.16;;;15.31;63.90
22830;BME280;11581;51.250;6.778;2022-11-15T05:07:48;100397.66;;;15.28;63.55
22830;BME280;11581;51.250;6.778;2022-11-15T05:10:34;100280.25;;;14.64;63.61
22830;BME280;11581;51.250;6.778;2022-11-15T05:13:19;100396.38;;;15.24;63.90
22830;BME280;11581;51.250;6.778;2022-11-15T05:16:09;100374.34;;;15.14;64.65
22830;BME280;11581;51.250;6.778;2022-11-15T05:18:54;100317.28;;;14.83;63.73
22830;BME280;11581;51.250;6.778;2022-11-15T05:21:41;100384.97;;;15.22;64.15
22830;BME280;11581;51.250;6.778;2022-11-15T05:24:26;100380.63;;;15.21;63.96
22830;BME280;11581;51.250;6.778;2022-11-15T05:27:13;100404.44;;;15.24;63.94
22830;BME280;11581;51.250;6.778;2022-11-15T05:29:59;100354.22;;;15.10;63.75
22830;BME280;11581;51.250;6.778;2022-11-15T05:32:44;100339.25;;;15.01;63.96
22830;BME280;11581;51.250;6.778;2022-11-15T05:35:33;100313.69;;;14.91;63.99
22830;BME280;11581;51.250;6.778;2022-11-15T05:38:27;100234.56;;;14.43;64.51
22830;BME280;11581;51.250;6.778;2022-11-15T05:41:33;100301.28;;;14.90;64.04
22830;BME280;11581;51.250;6.778;2022-11-15T05:44:21;100369.41;;;15.32;64.02
22830;BME280;11581;51.250;6.778;2022-11-15T05:47:09;100366.72;;;15.32;63.94
22830;BME280;11581;51.250;6.778;2022-11-15T05:49:56;100340.69;;;15.18;63.80
22830;BME280;11581;51.250;6.778;2022-11-15T05:52:43;100216.41;;;14.45;63.55
22830;BME280;11581;51.250;6.778;2022-11-15T05:55:31;100376.13;;;15.36;63.89
22830;BME280;11581;51.250;6.778;2022-11-15T05:58:17;100368.06;;;15.36;63.72
22830;BME280;11581;51.250;6.778;2022-11-15T06:01:02;100376.75;;;15.38;63.71
22830;BME280;11581;51.250;6.778;2022-11-15T06:03:48;100383.81;;;15.39;63.75
22830;BME280;11581;51.250;6.778;2022-11-15T06:06:34;100389.63;;;15.43;63.49
22830;BME280;11581;51.250;6.778;2022-11-15T06:09:20;100345.88;;;15.20;63.72
22830;BME280;11581;51.250;6.778;2022-11-15T06:12:07;100383.03;;;15.45;63.99
22830;BME280;11581;51.250;6.778;2022-11-15T06:14:52;100315.06;;;15.01;63.69
22830;BME280;11581;51.250;6.778;2022-11-15T06:17:37;100398.78;;;15.48;63.90
22830;BME280;11581;51.250;6.778;2022-11-15T06:20:27;100396.28;;;15.47;64.05
22830;BME280;11581;51.250;6.778;2022-11-15T06:23:14;100312.28;;;14.80;63.99
22830;BME280;11581;51.250;6.778;2022-11-15T06:26:00;100392.06;;;15.38;64.09
22830;BME280;11581;51.250;6.778;2022-11-15T06:28:47;100362.19;;;15.18;64.38
22830;BME280;11581;51.250;6.778;2022-11-15T06:31:33;100386.38;;;15.18;64.33
22830;BME280;11581;51.250;6.778;2022-11-15T06:34:19;100399.69;;;15.26;64.27
22830;BME280;11581;51.250;6.778;2022-11-15T06:37:05;100347.47;;;14.85;64.18
22830;BME280;11581;51.250;6.778;2022-11-15T06:39:51;100411.19;;;15.20;64.19
22830;BME280;11581;51.250;6.778;2022-11-15T06:42:40;100331.19;;;14.72;64.43
22830;BME280;11581;51.250;6.778;2022-11-15T06:45:27;100377.47;;;15.03;64.85
22830;BME280;11581;51.250;6.778;2022-11-15T06:48:12;100336.53;;;14.72;64.67
22830;BME280;11581;51.250;6.778;2022-11-15T06:50:59;100408.34;;;15.22;64.70
22830;BME280;11581;51.250;6.778;2022-11-15T06:53:47;100389.53;;;15.07;64.31
22830;BME280;11581;51.250;6.778;2022-11-15T06:56:34;100427.59;;;15.25;64.47
22830;BME280;11581;51.250;6.778;2022-11-15T06:59:20;100394.78;;;15.15;64.29
22830;BME280;11581;51.250;6.778;2022-11-15T07:02:11;100436.13;;;15.29;64.57
22830;BME280;11581;51.250;6.778;2022-11-15T07:04:58;100387.28;;;14.96;64.12
22830;BME280;11581;51.250;6.778;2022-11-15T07:07:51;100377.66;;;15.02;64.52
22830;BME280;11581;51.250;6.778;2022-11-15T07:10:37;100293.47;;;14.51;63.71
22830;BME280;11581;51.250;6.778;2022-11-15T07:13:26;100392.09;;;15.15;63.79
22830;BME280;11581;51.250;6.778;2022-11-15T07:16:13;100480.31;;;15.41;63.70
22830;BME280;11581;51.250;6.778;2022-11-15T07:19:03;100418.31;;;15.28;63.53
22830;BME280;11581;51.250;6.778;2022-11-15T07:21:50;100400.63;;;15.04;63.39
22830;BME280;11581;51.250;6.778;2022-11-15T07:24:36;100333.56;;;14.67;63.15
22830;BME280;11581;51.250;6.778;2022-11-15T07:27:21;100487.66;;;15.47;62.97
22830;BME280;11581;51.250;6.778;2022-11-15T07:30:08;100348.56;;;14.76;62.69
22830;BME280;11581;51.250;6.778;2022-11-15T07:32:54;100335.88;;;14.70;62.61
22830;BME280;11581;51.250;6.778;2022-11-15T07:35:41;100474.88;;;15.49;62.62
22830;BME280;11581;51.250;6.778;2022-11-15T07:38:27;100489.16;;;15.49;62.58
22830;BME280;11581;51.250;6.778;2022-11-15T07:41:13;100477.38;;;15.50;62.46
22830;BME280;11581;51.250;6.778;2022-11-15T07:43:58;100333.56;;;14.67;62.37
22830;BME280;11581;51.250;6.778;2022-11-15T07:46:44;100354.59;;;14.64;62.14
22830;BME280;11581;51.250;6.778;2022-11-15T07:49:29;100334.41;;;14.68;62.11
22830;BME280;11581;51.250;6.778;2022-11-15T07:52:17;100473.28;;;15.54;62.21
22830;BME280;11581;51.250;6.778;2022-11-15T07:55:05;100428.06;;;15.29;61.95
22830;BME280;11581;51.250;6.778;2022-11-15T07:57:51;100481.66;;;15.59;62.04
22830;BME280;11581;51.250;6.778;2022-11-15T08:00:37;100485.63;;;15.63;61.77
22830;BME280;11581;51.250;6.778;2022-11-15T08:03:24;100316.34;;;14.47;61.57
22830;BME280;11581;51.250;6.778;2022-11-15T08:06:10;100416.66;;;15.12;61.53
22830;BME280;11581;51.250;6.778;2022-11-15T08:08:57;100489.22;;;15.71;61.63
22830;BME280;11581;51.250;6.778;2022-11-15T08:11:42;100505.00;;;15.74;61.50
22830;BME280;11581;51.250;6.778;2022-11-15T08:14:28;100396.09;;;15.19;61.34
22830;BME280;11581;51.250;6.778;2022-11-15T08:17:15;100471.44;;;15.70;61.26
22830;BME280;11581;51.250;6.778;2022-11-15T08:20:09;100454.41;;;15.63;60.97
22830;BME280;11581;51.250;6.778;2022-11-15T08:22:57;100125.97;;;13.73;60.72
22830;BME280;11581;51.250;6.778;2022-11-15T08:25:44;100492.81;;;15.92;60.60
22830;BME280;11581;51.250;6.778;2022-11-15T08:28:31;100349.06;;;15.09;60.29
22830;BME280;11581;51.250;6.778;2022-11-15T08:31:20;100380.69;;;15.28;60.16
22830;BME280;11581;51.250;6.778;2022-11-15T08:34:08;100453.72;;;15.75;60.01
22830;BME280;11581;51.250;6.778;2022-11-15T08:36:53;100387.09;;;15.27;60.17
22830;BME280;11581;51.250;6.778;2022-11-15T08:39:42;100426.84;;;15.75;60.22
22830;BME280;11581;51.250;6.778;2022-11-15T08:42:32;100428.16;;;15.64;60.33
22830;BME280;11581;51.250;6.778;2022-11-15T08:45:19;100440.69;;;16.08;60.87
22830;BME280;11581;51.250;6.778;2022-11-15T08:48:05;100482.31;;;16.33;60.58
22830;BME280;11581;51.250;6.778;2022-11-15T08:50:53;100460.59;;;16.49;59.68
22830;BME280;11581;51.250;6.778;2022-11-15T08:53:38;100396.78;;;16.28;59.74
22830;BME280;11581;51.250;6.778;2022-11-15T08:56:24;100318.28;;;15.97;58.83
22830;BME280;11581;51.250;6.778;2022-11-15T08:59:11;100331.41;;;16.28;58.00
22830;BME280;11581;51.250;6.778;2022-11-15T09:01:58;100437.25;;;17.04;57.89
22830;BME280;11581;51.250;6.778;2022-11-15T09:04:44;100437.31;;;17.11;57.14
22830;BME280;11581;51.250;6.778;2022-11-15T09:07:31;100303.25;;;16.30;56.51
22830;BME280;11581;51.250;6.778;2022-11-15T09:10:17;100491.28;;;17.24;56.09
22830;BME280;11581;51.250;6.778;2022-11-15T09:13:02;100412.81;;;17.06;55.67
22830;BME280;11581;51.250;6.778;2022-11-15T09:15:50;100400.13;;;17.00;55.63
22830;BME280;11581;51.250;6.778;2022-11-15T09:18:36;100414.31;;;17.15;55.69
22830;BME280;11581;51.250;6.778;2022-11-15T09:21:28;100433.50;;;17.33;55.26
22830;BME280;11581;51.250;6.778;2022-11-15T09:24:14;100328.25;;;16.73;55.32
22830;BME280;11581;51.250;6.778;2022-11-15T09:27:02;100450.41;;;17.48;54.75
22830;BME280;11581;51.250;6.778;2022-11-15T09:29:49;100436.78;;;17.56;54.91
22830;BME280;11581;51.250;6.778;2022-11-15T09:32:38;100443.66;;;17.65;53.73
22830;BME280;11581;51.250;6.778;2022-11-15T09:35:24;100442.44;;;17.74;53.41
22830;BME280;11581;51.250;6.778;2022-11-15T09:38:11;100358.66;;;17.35;52.28
22830;BME280;11581;51.250;6.778;2022-11-15T09:41:13;100425.72;;;17.85;50.85
22830;BME280;11581;51.250;6.778;2022-11-15T09:44:30;100253.97;;;16.85;50.94
22830;BME280;11581;51.250;6.778;2022-11-15T09:51:04;100410.63;;;18.04;51.17
22830;BME280;11581;51.250;6.778;2022-11-15T09:53:38;100399.22;;;18.08;50.50
22830;BME280;11581;51.250;6.778;2022-11-15T09:56:14;100381.31;;;17.94;50.65
22830;BME280;11581;51.250;6.778;2022-11-15T09:58:46;100340.41;;;17.84;49.97
22830;BME280;11581;51.250;6.778;2022-11-15T10:01:19;100395.91;;;18.32;50.03
22830;BME280;11581;51.250;6.778;2022-11-15T10:03:47;100355.03;;;18.16;50.27
22830;BME280;11581;51.250;6.778;2022-11-15T10:06:23;100262.59;;;17.74;48.41
22830;BME280;11581;51.250;6.778;2022-11-15T10:08:58;100384.34;;;18.64;48.50
22830;BME280;11581;51.250;6.778;2022-11-15T10:11:31;100323.69;;;18.47;49.13
22830;BME280;11581;51.250;6.778;2022-11-15T10:14:01;100368.13;;;18.90;47.91
22830;BME280;11581;51.250;6.778;2022-11-15T10:17:07;100276.34;;;18.51;47.37
22830;BME280;11581;51.250;6.778;2022-11-15T10:19:47;100304.94;;;18.85;47.01
22830;BME280;11581;51.250;6.778;2022-11-15T10:22:25;100142.66;;;18.10;45.92
22830;BME280;11581;51.250;6.778;2022-11-15T10:25:19;100355.44;;;19.67;46.10
22830;BME280;11581;51.250;6.778;2022-11-15T10:27:55;100355.13;;;19.88;45.21
22830;BME280;11581;51.250;6.778;2022-11-15T10:30:22;100288.63;;;19.68;45.98
22830;BME280;11581;51.250;6.778;2022-11-15T10:32:49;100345.72;;;20.29;45.83
22830;BME280;11581;51.250;6.778;2022-11-15T10:35:21;100354.06;;;20.52;44.51
22830;BME280;11581;51.250;6.778;2022-11-15T10:37:50;100352.19;;;20.77;43.96
22830;BME280;11581;51.250;6.778;2022-11-15T10:40:19;100336.53;;;21.03;43.54
22830;BME280;11581;51.250;6.778;2022-11-15T10:42:48;100266.22;;;20.84;43.32
22830;BME280;11581;51.250;6.778;2022-11-15T10:45:35;100312.19;;;21.33;41.45
22830;BME280;11581;51.250;6.778;2022-11-15T10:48:27;100295.97;;;21.44;41.34
22830;BME280;11581;51.250;6.778;2022-11-15T10:50:55;100335.81;;;21.80;40.67
22830;BME280;11581;51.250;6.778;2022-11-15T10:53:32;100268.50;;;21.41;39.33
22830;BME280;11581;51.250;6.778;2022-11-15T10:56:06;100205.72;;;21.08;39.21
22830;BME280;11581;51.250;6.778;2022-11-15T10:58:37;100317.28;;;21.77;39.53
22830;BME280;11581;51.250;6.778;2022-11-15T11:01:11;100308.06;;;21.78;39.46
22830;BME280;11581;51.250;6.778;2022-11-15T11:03:43;100254.81;;;21.47;40.41
22830;BME280;11581;51.250;6.778;2022-11-15T11:06:15;100317.97;;;22.02;38.92
22830;BME280;11581;51.250;6.778;2022-11-15T11:08:55;100303.25;;;22.21;38.69
22830;BME280;11581;51.250;6.778;2022-11-15T11:11:22;100101.19;;;21.12;39.96
22830;BME280;11581;51.250;6.778;2022-11-15T11:13:52;100090.84;;;21.20;39.23
22830;BME280;11581;51.250;6.778;2022-11-15T11:16:41;100293.38;;;22.84;38.71
22830;BME280;11581;51.250;6.778;2022-11-15T11:19:25;100203.63;;;22.56;37.54
22830;BME280;11581;51.250;6.778;2022-11-15T11:22:01;100212.75;;;22.90;36.65
22830;BME280;11581;51.250;6.778;2022-11-15T11:24:36;100287.34;;;23.56;35.67
22830;BME280;11581;51.250;6.778;2022-11-15T11:27:16;99872.03;;;21.21;35.33
22830;BME280;11581;51.250;6.778;2022-11-15T11:29:57;100289.47;;;23.82;34.60
22830;BME280;11581;51.250;6.778;2022-11-15T11:35:19;100201.06;;;23.17;33.67
22830;BME280;11581;51.250;6.778;2022-11-15T11:37:49;100289.56;;;23.87;33.86
22830;BME280;11581;51.250;6.778;2022-11-15T11:40:29;100281.63;;;23.86;33.43
22830;BME280;11581;51.250;6.778;2022-11-15T11:43:04;100284.50;;;23.79;32.97
22830;BME280;11581;51.250;6.778;2022-11-15T11:45:59;100283.13;;;23.65;33.99
22830;BME280;11581;51.250;6.778;2022-11-15T11:48:40;100077.72;;;22.16;32.77
22830;BME280;11581;51.250;6.778;2022-11-15T11:51:13;100210.66;;;22.69;32.57
22830;BME280;11581;51.250;6.778;2022-11-15T11:53:45;100185.63;;;22.44;32.78
22830;BME280;11581;51.250;6.778;2022-11-15T11:56:23;100256.88;;;22.57;33.12
22830;BME280;11581;51.250;6.778;2022-11-15T11:58:53;100055.28;;;20.99;33.61
22830;BME280;11581;51.250;6.778;2022-11-15T12:01:23;100275.50;;;22.19;33.47
22830;BME280;11581;51.250;6.778;2022-11-15T12:03:57;100178.38;;;21.39;33.66
22830;BME280;11581;51.250;6.778;2022-11-15T12:06:31;100272.19;;;21.76;33.96
22830;BME280;11581;51.250;6.778;2022-11-15T12:09:03;100244.59;;;21.31;34.62
22830;BME280;11581;51.250;6.778;2022-11-15T12:11:51;100254.81;;;21.47;34.89
22830;BME280;11581;51.250;6.778;2022-11-15T12:14:35;100183.44;;;21.06;35.25
22830;BME280;11581;51.250;6.778;2022-11-15T12:17:07;99955.63;;;19.58;35.68
22830;BME280;11581;51.250;6.778;2022-11-15T12:19:35;100130.44;;;20.56;35.55
22830;BME280;11581;51.250;6.778;2022-11-15T12:22:08;100222.78;;;21.26;35.06
22830;BME280;11581;51.250;6.778;2022-11-15T12:24:44;100224.16;;;21.17;35.22
22830;BME280;11581;51.250;6.778;2022-11-15T12:27:17;100169.97;;;20.81;35.22
22830;BME280;11581;51.250;6.778;2022-11-15T12:29:49;100183.88;;;20.67;35.78
22830;BME280;11581;51.250;6.778;2022-11-15T12:32:25;100218.34;;;20.78;35.58
22830;BME280;11581;51.250;6.778;2022-11-15T12:35:02;100130.75;;;20.12;36.04
22830;BME280;11581;51.250;6.778;2022-11-15T12:37:47;100202.56;;;20.57;36.13
22830;BME280;11581;51.250;6.778;2022-11-15T12:40:19;100179.66;;;20.35;36.79
22830;BME280;11581;51.250;6.778;2022-11-15T12:46:12;100154.34;;;20.23;37.12
22830;BME280;11581;51.250;6.778;2022-11-15T12:48:55;100182.00;;;20.49;37.31
22830;BME280;11581;51.250;6.778;2022-11-15T12:54:58;100145.66;;;20.57;37.90
22830;BME280;11581;51.250;6.778;2022-11-15T12:57:41;100166.56;;;20.86;37.61
22830;BME280;11581;51.250;6.778;2022-11-15T13:00:43;100144.59;;;20.94;37.76
22830;BME280;11581;51.250;6.778;2022-11-15T13:03:25;100144.13;;;20.97;36.86
22830;BME280;11581;51.250;6.778;2022-11-15T13:06:04;100018.38;;;20.03;37.07
22830;BME280;11581;51.250;6.778;2022-11-15T13:08:42;100131.22;;;20.92;36.95
22830;BME280;11581;51.250;6.778;2022-11-15T13:11:45;100128.16;;;20.89;37.30
22830;BME280;11581;51.250;6.778;2022-11-15T13:14:47;100118.81;;;20.85;37.08
22830;BME280;11581;51.250;6.778;2022-11-15T13:17:30;100122.47;;;20.79;38.72
22830;BME280;11581;51.250;6.778;2022-11-15T13:20:19;99974.31;;;19.77;37.02
22830;BME280;11581;51.250;6.778;2022-11-15T13:22:48;100115.69;;;20.52;37.60
22830;BME280;11581;51.250;6.778;2022-11-15T13:25:34;100095.34;;;20.07;37.47
22830;BME280;11581;51.250;6.778;2022-11-15T13:28:11;100114.19;;;20.20;37.67
22830;BME280;11581;51.250;6.778;2022-11-15T13:30:49;100131.59;;;20.06;37.94
22830;BME280;11581;51.250;6.778;2022-11-15T13:33:19;100109.47;;;19.90;38.29
22830;BME280;11581;51.250;6.778;2022-11-15T13:35:51;100121.47;;;19.76;38.58
22830;BME280;11581;51.250;6.778;2022-11-15T13:38:27;100086.75;;;19.49;38.64
22830;BME280;11581;51.250;6.778;2022-11-15T13:40:55;100097.34;;;19.50;39.43
22830;BME280;11581;51.250;6.778;2022-11-15T13:43:37;100070.31;;;19.26;39.44
22830;BME280;11581;51.250;6.778;2022-11-15T13:46:10;100084.38;;;19.34;39.56
22830;BME280;11581;51.250;6.778;2022-11-15T13:48:38;100082.09;;;19.31;40.55
22830;BME280;11581;51.250;6.778;2022-11-15T13:51:10;100096.06;;;19.28;39.88
22830;BME280;11581;51.250;6.778;2022-11-15T13:53:46;100061.38;;;19.19;39.78
22830;BME280;11581;51.250;6.778;2022-11-15T13:56:14;100077.13;;;19.22;39.92
22830;BME280;11581;51.250;6.778;2022-11-15T13:58:44;100046.91;;;19.07;40.25
22830;BME280;11581;51.250;6.778;2022-11-15T14:01:16;100058.72;;;19.12;40.15
22830;BME280;11581;51.250;6.778;2022-11-15T14:03:50;100049.41;;;19.08;40.84
22830;BME280;11581;51.250;6.778;2022-11-15T14:06:20;100009.72;;;18.78;40.37
22830;BME280;11581;51.250;6.778;2022-11-15T14:11:50;99976.47;;;18.46;41.21
22830;BME280;11581;51.250;6.778;2022-11-15T14:14:19;99964.88;;;18.33;41.02
22830;BME280;11581;51.250;6.778;2022-11-15T14:16:49;100035.53;;;18.67;41.29
22830;BME280;11581;51.250;6.778;2022-11-15T14:19:35;99988.53;;;18.31;41.75
22830;BME280;11581;51.250;6.778;2022-11-15T14:22:28;100025.22;;;18.51;42.11
22830;BME280;11581;51.250;6.778;2022-11-15T14:25:14;100008.66;;;18.41;42.72
22830;BME280;11581;51.250;6.778;2022-11-15T14:27:43;99995.19;;;18.28;42.57
22830;BME280;11581;51.250;6.778;2022-11-15T14:30:15;99967.50;;;18.08;42.80
22830;BME280;11581;51.250;6.778;2022-11-15T14:32:47;99950.56;;;17.88;42.87
22830;BME280;11581;51.250;6.778;2022-11-15T14:35:17;99942.69;;;17.80;43.29
22830;BME280;11581;51.250;6.778;2022-11-15T14:37:47;100001.50;;;18.16;43.57
22830;BME280;11581;51.250;6.778;2022-11-15T14:40:17;99998.59;;;18.11;43.72